DCOOL EDDM-EDMO
Flight info
| Callsign | DCOOL |
|---|---|
| Flight time | 0h 11m |
| Altitude | |
| Route | |
| Aircraft | C25C |
Departure
| Time | 2026-05-06 17:24 |
|---|---|
| Airport | Munich Airport (EDDM) |
Arrival
| Time | 2026-05-06 17:35 |
|---|---|
| Airport | Oberpfaffenhofen Airport (EDMO) |
| Time | Latitude | Longitude | Altitude | Speed | Heading |
|---|---|---|---|---|---|
| 2026-05-06 17:00 | 48.35301 | 11.80504 | 1468 ft | 0 kts | 84° |
| 2026-05-06 17:09 | 48.35302 | 11.80506 | 1468 ft | 1 kts | 53° |
| 2026-05-06 17:09 | 48.35307 | 11.80485 | 1466 ft | 4 kts | 250° |
| 2026-05-06 17:09 | 48.35311 | 11.80441 | 1468 ft | 5 kts | 320° |
| 2026-05-06 17:10 | 48.35348 | 11.80431 | 1468 ft | 7 kts | 356° |
| 2026-05-06 17:10 | 48.35422 | 11.80381 | 1467 ft | 13 kts | 275° |
| 2026-05-06 17:10 | 48.35412 | 11.80246 | 1467 ft | 16 kts | 263° |
| 2026-05-06 17:10 | 48.35393 | 11.80162 | 1465 ft | 2 kts | 193° |
| 2026-05-06 17:11 | 48.35320 | 11.80199 | 1468 ft | 18 kts | 171° |
| 2026-05-06 17:11 | 48.35168 | 11.80224 | 1470 ft | 23 kts | 175° |
| 2026-05-06 17:11 | 48.35103 | 11.80121 | 1471 ft | 15 kts | 263° |
| 2026-05-06 17:11 | 48.35091 | 11.79975 | 1471 ft | 14 kts | 263° |
| 2026-05-06 17:12 | 48.35080 | 11.79828 | 1472 ft | 15 kts | 262° |
| 2026-05-06 17:12 | 48.35057 | 11.79683 | 1464 ft | 12 kts | 226° |
| 2026-05-06 17:12 | 48.34996 | 11.79668 | 1473 ft | 9 kts | 174° |
| 2026-05-06 17:12 | 48.34936 | 11.79682 | 1468 ft | 8 kts | 180° |
| 2026-05-06 17:13 | 48.34899 | 11.79686 | 1474 ft | 0 kts | 174° |
| 2026-05-06 17:18 | 48.34885 | 11.79688 | 1474 ft | 9 kts | 174° |
| 2026-05-06 17:18 | 48.34800 | 11.79704 | 1472 ft | 17 kts | 174° |
| 2026-05-06 17:18 | 48.34681 | 11.79660 | 1475 ft | 19 kts | 238° |
| 2026-05-06 17:19 | 48.34607 | 11.79508 | 1471 ft | 18 kts | 233° |
| 2026-05-06 17:19 | 48.34536 | 11.79366 | 1476 ft | 16 kts | 234° |
| 2026-05-06 17:19 | 48.34514 | 11.79323 | 1476 ft | 0 kts | 231° |
| 2026-05-06 17:22 | 48.34501 | 11.79298 | 1471 ft | 3 kts | 233° |
| 2026-05-06 17:22 | 48.34499 | 11.79293 | 1471 ft | 0 kts | 234° |
| 2026-05-06 17:23 | 48.34409 | 11.79098 | 1472 ft | 45 kts | 240° |
| 2026-05-06 17:23 | 48.34334 | 11.78558 | 1475 ft | 80 kts | 263° |
| 2026-05-06 17:24 | 48.34178 | 11.77272 | 1889 ft | 156 kts | 251° |
| 2026-05-06 17:24 | 48.33313 | 11.75850 | 2860 ft | 215 kts | 215° |
| 2026-05-06 17:24 | 48.32038 | 11.74873 | 3821 ft | 190 kts | 211° |
| 2026-05-06 17:24 | 48.30739 | 11.74314 | 4308 ft | 211 kts | 193° |
| 2026-05-06 17:25 | 48.29133 | 11.74146 | 4497 ft | 242 kts | 186° |
| 2026-05-06 17:25 | 48.27467 | 11.73985 | 4479 ft | 237 kts | 187° |
| 2026-05-06 17:25 | 48.25831 | 11.74051 | 4026 ft | 228 kts | 175° |
| 2026-05-06 17:25 | 48.24335 | 11.74635 | 3704 ft | 219 kts | 164° |
| 2026-05-06 17:26 | 48.22996 | 11.75553 | 3393 ft | 215 kts | 157° |
| 2026-05-06 17:26 | 48.21716 | 11.76620 | 3242 ft | 201 kts | 154° |
| 2026-05-06 17:26 | 48.20611 | 11.77769 | 3150 ft | 189 kts | 148° |
| 2026-05-06 17:26 | 48.19507 | 11.78127 | 3248 ft | 148 kts | 211° |
| 2026-05-06 17:27 | 48.18899 | 11.77146 | 3337 ft | 122 kts | 242° |
| 2026-05-06 17:27 | 48.18321 | 11.76266 | 3368 ft | 116 kts | 231° |
| 2026-05-06 17:27 | 48.18019 | 11.75334 | 3294 ft | 105 kts | 277° |
| 2026-05-06 17:27 | 48.17941 | 11.74286 | 3589 ft | 99 kts | 255° |
| 2026-05-06 17:28 | 48.17780 | 11.73251 | 3757 ft | 104 kts | 265° |
| 2026-05-06 17:28 | 48.17639 | 11.72184 | 4003 ft | 102 kts | 261° |
| 2026-05-06 17:28 | 48.17530 | 11.71153 | 4223 ft | 102 kts | 262° |
| 2026-05-06 17:28 | 48.17397 | 11.69956 | 4037 ft | 134 kts | 264° |
| 2026-05-06 17:29 | 48.17243 | 11.68445 | 3834 ft | 162 kts | 263° |
| 2026-05-06 17:29 | 48.17064 | 11.66654 | 3641 ft | 181 kts | 263° |
| 2026-05-06 17:29 | 48.16873 | 11.64800 | 3653 ft | 184 kts | 263° |
| 2026-05-06 17:29 | 48.16659 | 11.62911 | 3767 ft | 181 kts | 263° |
| 2026-05-06 17:30 | 48.16464 | 11.61081 | 3956 ft | 176 kts | 262° |
| 2026-05-06 17:30 | 48.16276 | 11.59258 | 4038 ft | 179 kts | 263° |
| 2026-05-06 17:30 | 48.16073 | 11.57403 | 4069 ft | 182 kts | 262° |
| 2026-05-06 17:30 | 48.15872 | 11.55518 | 4086 ft | 185 kts | 262° |
| 2026-05-06 17:31 | 48.15676 | 11.53603 | 4077 ft | 188 kts | 263° |
| 2026-05-06 17:31 | 48.15480 | 11.51655 | 4087 ft | 189 kts | 263° |
| 2026-05-06 17:31 | 48.15285 | 11.49704 | 4081 ft | 190 kts | 263° |
| 2026-05-06 17:31 | 48.15072 | 11.47734 | 4087 ft | 194 kts | 263° |
| 2026-05-06 17:32 | 48.14864 | 11.45704 | 4090 ft | 199 kts | 262° |
| 2026-05-06 17:32 | 48.14661 | 11.43636 | 4100 ft | 201 kts | 263° |
| 2026-05-06 17:32 | 48.14463 | 11.41522 | 4000 ft | 210 kts | 263° |
| 2026-05-06 17:32 | 48.14244 | 11.39312 | 3884 ft | 219 kts | 263° |
| 2026-05-06 17:33 | 48.14039 | 11.37134 | 3827 ft | 201 kts | 263° |
| 2026-05-06 17:33 | 48.13805 | 11.35205 | 3770 ft | 179 kts | 254° |
| 2026-05-06 17:33 | 48.12995 | 11.33964 | 3160 ft | 171 kts | 205° |
| 2026-05-06 17:33 | 48.12059 | 11.33476 | 3047 ft | 124 kts | 213° |
| 2026-05-06 17:34 | 48.11391 | 11.32810 | 2846 ft | 108 kts | 227° |
| 2026-05-06 17:34 | 48.10822 | 11.31974 | 2628 ft | 117 kts | 229° |
| 2026-05-06 17:34 | 48.10212 | 11.31131 | 2386 ft | 121 kts | 224° |
| 2026-05-06 17:34 | 48.09623 | 11.30335 | 2200 ft | 104 kts | 225° |
| 2026-05-06 17:35 | 48.09109 | 11.29641 | 1981 ft | 93 kts | 225° |
| 2026-05-06 17:35 | 48.08668 | 11.29030 | 1903 ft | 76 kts | 227° |
| 2026-05-06 17:35 | 48.08378 | 11.28608 | 1906 ft | 41 kts | 216° |
| 2026-05-06 17:36 | 48.08169 | 11.28242 | 1921 ft | 13 kts | 314° |
| 2026-05-06 17:36 | 48.08227 | 11.28149 | 1922 ft | 12 kts | 310° |
| 2026-05-06 17:36 | 48.08279 | 11.28062 | 1922 ft | 11 kts | 315° |
| 2026-05-06 17:36 | 48.08334 | 11.28096 | 1920 ft | 8 kts | 45° |
| 2026-05-06 17:37 | 48.08385 | 11.28162 | 1919 ft | 12 kts | 44° |
| 2026-05-06 17:37 | 48.08455 | 11.28256 | 1907 ft | 15 kts | 46° |
| 2026-05-06 17:37 | 48.08521 | 11.28369 | 1913 ft | 10 kts | 98° |
| 2026-05-06 17:37 | 48.08517 | 11.28388 | 1907 ft | 0 kts | 108° |